Time;durP1;ratioP1;P1;durP2;ratioP2;P2;SDS_P1;SDS_P2;PMS_P1;PMS_P2;Temp;Humidity;BMP_temperature;BMP_pressure;BME280_temperature;BME280_humidity;BME280_pressure;Samples;Min_cycle;Max_cycle;Signal;HPM_P1;HPM_P2
2023/05/31 00:01:36;;;;;;;7.10;2.13;;;11.70;99.90;;;;;;4420947;27;656726;-69
2023/05/31 00:04:24;;;;;;;3.93;2.00;;;11.50;99.90;;;;;;4423173;27;657439;-69
2023/05/31 00:07:11;;;;;;;5.17;1.90;;;11.40;99.90;;;;;;4373808;28;657438;-69
2023/05/31 00:10:00;;;;;;;3.60;1.83;;;11.30;99.90;;;;;;4402092;27;657361;-69
2023/05/31 00:12:47;;;;;;;6.63;2.00;;;11.20;99.90;;;;;;4364050;27;657141;-69
2023/05/31 00:15:34;;;;;;;6.38;2.03;;;11.10;99.90;;;;;;4402948;27;656845;-69
2023/05/31 00:18:21;;;;;;;4.67;1.80;;;11.00;99.90;;;;;;4358372;27;657625;-69
2023/05/31 00:21:09;;;;;;;5.47;1.80;;;10.90;99.90;;;;;;4390492;27;656300;-69
2023/05/31 00:23:56;;;;;;;4.03;2.03;;;10.80;99.90;;;;;;4381727;27;656995;-70
2023/05/31 00:26:44;;;;;;;8.55;2.15;;;10.70;99.90;;;;;;4381615;27;656804;-69
2023/05/31 00:29:31;;;;;;;7.63;2.10;;;10.60;99.90;;;;;;4360576;27;656437;-69
2023/05/31 00:32:19;;;;;;;6.37;2.00;;;10.50;99.90;;;;;;4380199;27;657211;-69
2023/05/31 00:35:06;;;;;;;3.27;1.83;;;10.40;99.90;;;;;;4410263;27;656568;-69
2023/05/31 00:37:53;;;;;;;10.43;2.30;;;10.30;99.90;;;;;;4380110;28;657130;-69
2023/05/31 00:40:41;;;;;;;4.63;1.83;;;10.10;99.90;;;;;;4369838;27;658297;-70
2023/05/31 00:43:29;;;;;;;7.80;2.20;;;10.10;99.90;;;;;;4402672;27;656989;-69
2023/05/31 00:46:26;;;;;;;8.20;2.20;;;10.00;99.90;;;;;;4366821;27;657406;-69
2023/05/31 00:49:13;;;;;;;5.10;2.10;;;9.90;99.90;;;;;;4370157;27;656149;-69
2023/05/31 00:52:00;;;;;;;4.93;1.93;;;9.90;99.90;;;;;;4368273;28;655490;-70
2023/05/31 00:54:48;;;;;;;4.70;2.00;;;9.80;99.90;;;;;;4387064;27;657710;-70
2023/05/31 00:57:35;;;;;;;5.35;1.75;;;9.70;99.90;;;;;;4369966;27;655735;-70
2023/05/31 01:00:24;;;;;;;3.83;1.60;;;9.60;99.90;;;;;;4432764;27;656262;-69
2023/05/31 01:03:12;;;;;;;9.37;2.37;;;9.50;99.90;;;;;;4366793;28;655429;-69
2023/05/31 01:06:01;;;;;;;8.83;2.33;;;9.50;99.90;;;;;;4391937;27;655623;-69
2023/05/31 01:08:48;;;;;;;2.83;1.80;;;9.60;99.90;;;;;;4387942;27;656463;-69
2023/05/31 01:11:54;;;;;;;9.40;2.37;;;9.60;99.90;;;;;;4360325;28;655588;-69
2023/05/31 01:14:47;;;;;;;5.90;2.10;;;9.80;99.90;;;;;;4359565;28;655200;-69
2023/05/31 01:17:39;;;;;;;5.40;1.87;;;9.80;99.90;;;;;;4393912;27;655946;-69
2023/05/31 01:20:26;;;;;;;7.97;2.30;;;9.90;99.90;;;;;;4341510;27;656458;-69
2023/05/31 01:23:26;;;;;;;6.15;1.92;;;10.00;99.90;;;;;;4389614;28;655740;-69
2023/05/31 01:26:29;;;;;;;7.53;2.40;;;10.00;99.90;;;;;;4394699;27;657608;-70
2023/05/31 01:29:19;;;;;;;6.40;2.00;;;10.00;99.90;;;;;;4339345;28;657989;-69
2023/05/31 01:32:06;;;;;;;7.80;2.10;;;10.10;99.90;;;;;;4374128;27;656658;-69
2023/05/31 01:34:54;;;;;;;6.40;1.97;;;10.10;99.90;;;;;;4401481;27;656054;-69
2023/05/31 01:37:41;;;;;;;10.13;2.23;;;10.10;99.90;;;;;;4366394;28;657093;-69
2023/05/31 01:40:29;;;;;;;5.83;2.20;;;10.10;99.90;;;;;;4387520;28;658360;-69
2023/05/31 01:43:17;;;;;;;5.30;2.17;;;10.10;99.90;;;;;;4361165;28;656401;-70
2023/05/31 01:46:04;;;;;;;7.80;2.10;;;10.10;99.90;;;;;;4392041;27;656945;-69
2023/05/31 01:48:52;;;;;;;3.70;2.10;;;10.10;99.90;;;;;;4372220;27;657005;-69
2023/05/31 01:51:39;;;;;;;6.27;2.13;;;10.00;99.90;;;;;;4385582;28;656140;-69
2023/05/31 01:54:26;;;;;;;6.90;2.30;;;10.00;99.90;;;;;;4373707;28;657032;-69
2023/05/31 01:57:13;;;;;;;5.70;1.95;;;10.00;99.90;;;;;;4378058;27;657654;-69
2023/05/31 02:00:03;;;;;;;10.47;2.20;;;9.90;99.90;;;;;;4362738;28;656701;-69
2023/05/31 02:02:51;;;;;;;7.80;2.03;;;9.90;99.90;;;;;;4367911;27;656508;-69
2023/05/31 02:05:38;;;;;;;4.90;2.27;;;9.80;99.90;;;;;;4388186;28;655244;-69
2023/05/31 02:08:25;;;;;;;7.10;2.17;;;9.80;99.90;;;;;;4379290;27;655317;-69
2023/05/31 02:11:13;;;;;;;4.60;1.93;;;9.70;99.90;;;;;;4397740;27;656310;-69
2023/05/31 02:14:00;;;;;;;5.20;1.90;;;9.70;99.90;;;;;;4372908;28;655532;-69
2023/05/31 02:16:49;;;;;;;6.20;2.00;;;9.60;99.90;;;;;;4385947;28;656391;-69
2023/05/31 02:19:37;;;;;;;4.13;1.77;;;9.50;99.90;;;;;;4363340;28;656141;-69
2023/05/31 02:22:24;;;;;;;7.43;2.13;;;9.40;99.90;;;;;;4418398;27;655411;-69
2023/05/31 02:25:12;;;;;;;6.13;2.20;;;9.30;99.90;;;;;;4377704;28;655278;-69
2023/05/31 02:27:59;;;;;;;13.17;2.10;;;9.30;99.90;;;;;;4394528;27;656077;-69
2023/05/31 02:30:54;;;;;;;4.93;2.20;;;9.20;99.90;;;;;;4370379;27;656856;-68
2023/05/31 02:33:42;;;;;;;5.10;1.97;;;9.20;99.90;;;;;;4363276;27;655766;-69
2023/05/31 02:36:30;;;;;;;4.40;2.20;;;9.10;99.90;;;;;;4381499;28;655942;-70
2023/05/31 02:39:17;;;;;;;8.37;2.20;;;9.10;99.90;;;;;;4435286;27;655530;-69
2023/05/31 02:42:06;;;;;;;5.63;2.33;;;9.00;99.90;;;;;;4386429;28;655647;-70
2023/05/31 02:44:53;;;;;;;5.93;2.03;;;9.00;99.90;;;;;;4387592;27;656101;-69
2023/05/31 02:47:40;;;;;;;4.13;2.10;;;8.90;99.90;;;;;;4368900;27;655622;-69
2023/05/31 02:50:29;;;;;;;10.30;2.20;;;8.90;99.90;;;;;;4377669;28;655760;-70
2023/05/31 02:53:16;;;;;;;7.30;2.13;;;8.90;99.90;;;;;;4371466;27;657805;-69
2023/05/31 02:56:03;;;;;;;6.70;2.13;;;8.80;99.90;;;;;;4382943;27;656759;-69
2023/05/31 02:58:51;;;;;;;3.77;1.73;;;8.70;99.90;;;;;;4360449;28;655490;-69
2023/05/31 03:01:38;;;;;;;4.53;2.00;;;8.70;99.90;;;;;;4386419;28;655587;-68
2023/05/31 03:04:26;;;;;;;4.97;2.00;;;8.70;99.90;;;;;;4366465;28;656022;-70
2023/05/31 03:07:14;;;;;;;5.33;2.33;;;8.70;99.90;;;;;;4405461;27;655604;-69
2023/05/31 03:10:04;;;;;;;4.27;2.33;;;8.60;99.90;;;;;;4392002;27;655892;-69
2023/05/31 03:12:51;;;;;;;6.60;2.23;;;8.60;99.90;;;;;;4371081;28;655877;-69
2023/05/31 03:15:38;;;;;;;4.73;2.27;;;8.60;99.90;;;;;;4392027;27;656015;-69
2023/05/31 03:18:25;;;;;;;5.77;2.67;;;8.50;99.90;;;;;;4364470;27;656308;-70
2023/05/31 03:21:12;;;;;;;6.50;2.60;;;8.40;99.90;;;;;;4385267;28;655051;-68
2023/05/31 03:24:01;;;;;;;5.80;2.80;;;8.40;99.90;;;;;;4398903;27;654874;-68
2023/05/31 03:26:48;;;;;;;6.67;2.63;;;8.40;99.90;;;;;;4339185;28;655450;-69
2023/05/31 03:29:38;;;;;;;8.97;2.63;;;8.50;99.90;;;;;;4343864;28;655773;-69
2023/05/31 03:32:25;;;;;;;6.27;2.50;;;8.50;99.90;;;;;;4360056;28;655502;-70
2023/05/31 03:35:12;;;;;;;5.63;2.77;;;8.50;99.90;;;;;;4358885;28;655841;-69
2023/05/31 03:37:59;;;;;;;5.87;2.87;;;8.60;99.90;;;;;;4374255;28;655629;-68
2023/05/31 03:40:48;;;;;;;6.33;3.13;;;8.60;99.90;;;;;;4343291;28;655593;-69
2023/05/31 03:43:35;;;;;;;8.83;2.67;;;8.80;99.90;;;;;;4366624;28;658663;-70
2023/05/31 03:46:22;;;;;;;4.40;2.40;;;8.80;99.90;;;;;;4375442;27;655625;-69
2023/05/31 03:49:10;;;;;;;11.57;2.83;;;8.80;99.90;;;;;;4364706;28;655733;-69
2023/05/31 03:51:58;;;;;;;6.77;2.90;;;8.90;99.90;;;;;;4364054;28;657160;-69
2023/05/31 03:54:46;;;;;;;7.23;2.47;;;9.00;99.90;;;;;;4355930;28;655548;-70
2023/05/31 03:57:35;;;;;;;5.87;2.40;;;9.10;99.90;;;;;;4357780;28;656009;-69
2023/05/31 04:00:22;;;;;;;5.17;2.27;;;9.20;99.90;;;;;;4330419;28;656765;-69
2023/05/31 04:03:11;;;;;;;5.73;2.70;;;9.30;99.90;;;;;;4358002;28;654828;-69
2023/05/31 04:05:59;;;;;;;8.90;2.47;;;9.30;99.90;;;;;;4333587;28;655692;-69
2023/05/31 04:08:46;;;;;;;5.23;2.13;;;9.40;99.90;;;;;;4328365;28;655158;-69
2023/05/31 04:11:33;;;;;;;8.00;2.17;;;9.50;99.90;;;;;;4369660;28;655988;-69
2023/05/31 04:14:22;;;;;;;5.32;2.40;;;9.70;99.90;;;;;;4336725;28;656073;-69
2023/05/31 04:17:09;;;;;;;10.17;2.90;;;9.80;99.90;;;;;;4349312;28;655284;-69
2023/05/31 04:19:56;;;;;;;7.50;2.60;;;9.90;99.90;;;;;;4342021;28;656213;-69
2023/05/31 04:22:43;;;;;;;7.00;2.50;;;10.00;99.90;;;;;;4369784;28;655942;-69
2023/05/31 04:25:31;;;;;;;6.47;2.23;;;10.20;99.90;;;;;;4359158;28;656168;-69
2023/05/31 04:28:19;;;;;;;7.93;2.80;;;10.40;99.90;;;;;;4384022;28;657521;-69
2023/05/31 04:31:07;;;;;;;9.77;3.00;;;10.60;99.90;;;;;;4358663;28;657135;-69
2023/05/31 04:33:56;;;;;;;8.33;2.43;;;11.00;99.90;;;;;;4378176;28;656306;-70
2023/05/31 04:36:44;;;;;;;7.00;2.60;;;11.20;99.90;;;;;;4399828;27;656980;-69
2023/05/31 04:39:31;;;;;;;10.43;2.90;;;11.50;99.90;;;;;;4364068;27;656519;-69
2023/05/31 04:42:18;;;;;;;6.63;2.70;;;11.80;99.90;;;;;;4410462;27;657993;-68
2023/05/31 04:45:06;;;;;;;4.87;2.27;;;12.00;99.90;;;;;;4363101;28;657747;-69
2023/05/31 04:47:55;;;;;;;9.77;2.87;;;12.20;99.90;;;;;;4389157;27;656927;-69
2023/05/31 04:50:43;;;;;;;10.63;3.10;;;12.50;99.90;;;;;;4374284;27;657248;-69
2023/05/31 04:53:30;;;;;;;6.27;2.40;;;12.70;99.90;;;;;;4367666;28;657824;-70
2023/05/31 04:56:18;;;;;;;7.90;2.67;;;13.00;99.90;;;;;;4396170;28;657419;-69
2023/05/31 04:59:07;;;;;;;7.63;2.72;;;13.10;99.90;;;;;;4359343;28;656773;-71
2023/05/31 05:01:54;;;;;;;7.85;2.75;;;13.30;99.90;;;;;;4384677;28;656491;-70
2023/05/31 05:04:43;;;;;;;5.00;2.63;;;13.50;99.90;;;;;;4372341;28;657308;-69
2023/05/31 05:07:30;;;;;;;9.07;2.80;;;13.60;99.90;;;;;;4365519;28;656565;-70
2023/05/31 05:10:17;;;;;;;6.07;2.37;;;13.70;99.90;;;;;;4394477;27;656733;-69
2023/05/31 05:13:05;;;;;;;6.90;3.00;;;13.90;99.90;;;;;;4389120;28;656424;-70
2023/05/31 05:15:53;;;;;;;5.13;2.60;;;14.00;99.90;;;;;;4389188;28;658184;-69
2023/05/31 05:18:41;;;;;;;6.25;2.60;;;14.20;99.90;;;;;;4383121;27;656940;-70
2023/05/31 05:21:29;;;;;;;6.20;2.67;;;14.30;99.90;;;;;;4385017;28;656887;-69
2023/05/31 05:24:17;;;;;;;8.00;2.70;;;14.50;99.90;;;;;;4359783;28;657327;-69
2023/05/31 05:27:04;;;;;;;13.50;3.00;;;14.60;99.90;;;;;;4379394;27;655926;-69
2023/05/31 05:29:51;;;;;;;6.20;2.43;;;14.70;99.90;;;;;;4360155;28;658028;-78
2023/05/31 05:32:38;;;;;;;9.40;2.45;;;14.90;99.90;;;;;;4384866;27;657424;-81
2023/05/31 05:35:25;;;;;;;6.03;2.80;;;15.00;99.90;;;;;;4368474;28;656491;-76
2023/05/31 05:38:14;;;;;;;8.33;2.43;;;15.10;99.90;;;;;;4375738;28;657391;-79
2023/05/31 05:41:01;;;;;;;5.77;2.37;;;15.30;99.90;;;;;;4366203;27;656831;-79
2023/05/31 05:43:48;;;;;;;9.73;2.43;;;15.40;99.90;;;;;;4405666;27;657549;-78
2023/05/31 05:46:36;;;;;;;6.20;2.40;;;15.50;99.90;;;;;;4369707;28;656533;-78
2023/05/31 05:49:23;;;;;;;9.37;2.50;;;15.70;99.90;;;;;;4386578;28;658111;-77
2023/05/31 05:52:10;;;;;;;7.30;3.00;;;15.80;99.90;;;;;;4368352;27;656901;-75
2023/05/31 05:54:59;;;;;;;8.47;2.83;;;16.00;99.90;;;;;;4411206;27;656922;-79
2023/05/31 05:57:46;;;;;;;5.77;2.40;;;16.10;99.90;;;;;;4359470;27;656593;-76
2023/05/31 06:00:33;;;;;;;14.13;2.60;;;16.30;99.90;;;;;;4376392;28;657779;-77
2023/05/31 06:03:20;;;;;;;11.73;2.80;;;16.40;99.90;;;;;;4361797;28;657427;-76
2023/05/31 06:06:08;;;;;;;6.97;2.60;;;16.50;99.90;;;;;;4400685;27;657919;-77
2023/05/31 06:08:55;;;;;;;4.10;2.10;;;16.70;99.90;;;;;;4369586;28;657108;-74
2023/05/31 06:11:44;;;;;;;7.90;2.40;;;16.80;99.90;;;;;;4401379;27;657335;-77
2023/05/31 06:14:31;;;;;;;11.63;2.80;;;16.90;99.90;;;;;;4366189;28;656529;-78
2023/05/31 06:17:18;;;;;;;9.03;2.30;;;17.10;99.90;;;;;;4396976;27;659073;-78
2023/05/31 06:20:10;;;;;;;9.80;2.40;;;17.30;99.90;;;;;;4378144;27;656631;-77
2023/05/31 06:22:57;;;;;;;9.10;2.73;;;17.40;99.90;;;;;;4373159;27;658537;-78
2023/05/31 06:25:44;;;;;;;11.13;2.40;;;17.50;99.90;;;;;;4381101;28;656534;-78
2023/05/31 06:28:33;;;;;;;11.10;3.00;;;17.70;99.90;;;;;;4362811;27;657473;-78
2023/05/31 06:31:20;;;;;;;7.80;2.70;;;17.90;99.90;;;;;;4362450;28;657580;-74
2023/05/31 06:34:07;;;;;;;12.37;2.90;;;18.10;99.90;;;;;;4384597;28;657454;-78
2023/05/31 06:36:56;;;;;;;9.63;2.93;;;18.00;99.90;;;;;;4378878;28;658846;-75
2023/05/31 06:39:43;;;;;;;5.00;2.17;;;18.10;99.20;;;;;;4378672;28;656450;-79
2023/05/31 06:42:30;;;;;;;11.80;2.88;;;18.20;97.20;;;;;;4366551;28;656372;-77
2023/05/31 06:45:19;;;;;;;11.03;3.00;;;18.20;96.20;;;;;;4404821;27;658279;-78
2023/05/31 06:48:06;;;;;;;9.80;2.53;;;18.30;95.70;;;;;;4373057;27;657653;-75
2023/05/31 06:50:54;;;;;;;4.87;2.73;;;18.40;96.80;;;;;;4389733;27;657346;-73
2023/05/31 06:53:41;;;;;;;6.10;2.20;;;18.50;96.40;;;;;;4359723;28;657461;-73
2023/05/31 06:56:29;;;;;;;11.03;2.20;;;18.60;94.70;;;;;;4386023;28;658102;-75
2023/05/31 06:59:16;;;;;;;7.93;2.77;;;18.70;92.80;;;;;;4363683;27;657334;-75
2023/05/31 07:02:05;;;;;;;11.37;2.70;;;19.00;97.10;;;;;;4392982;27;657674;-79
2023/05/31 07:04:52;;;;;;;9.67;2.60;;;19.10;94.90;;;;;;4359868;28;658194;-75
2023/05/31 07:07:40;;;;;;;8.67;2.50;;;19.20;92.50;;;;;;4388787;27;656725;-74
2023/05/31 07:10:28;;;;;;;7.90;2.10;;;19.40;90.00;;;;;;4391373;28;656282;-77
2023/05/31 07:13:15;;;;;;;6.80;2.40;;;19.50;85.80;;;;;;4370082;28;656335;-75
2023/05/31 07:16:02;;;;;;;12.67;2.77;;;19.70;81.20;;;;;;4383882;27;657172;-77
2023/05/31 07:18:52;;;;;;;9.13;2.50;;;19.80;80.30;;;;;;4392812;27;657803;-74
2023/05/31 07:21:39;;;;;;;6.30;2.20;;;20.00;86.90;;;;;;4385744;27;656858;-75
2023/05/31 07:24:26;;;;;;;9.00;2.40;;;19.90;83.60;;;;;;4370568;28;656905;-75
2023/05/31 07:27:13;;;;;;;5.43;2.47;;;19.80;83.70;;;;;;4372829;28;656934;-77
2023/05/31 07:30:01;;;;;;;5.37;2.20;;;19.70;80.70;;;;;;4356420;28;656836;-76
2023/05/31 07:32:48;;;;;;;11.05;2.28;;;19.40;74.90;;;;;;4363287;28;656843;-76
2023/05/31 07:35:37;;;;;;;10.50;2.17;;;19.40;79.00;;;;;;4342653;28;657973;-75
2023/05/31 07:38:24;;;;;;;4.33;2.10;;;19.30;75.60;;;;;;4365545;28;657662;-77
2023/05/31 07:41:11;;;;;;;6.13;2.15;;;19.50;80.80;;;;;;4350779;28;656151;-76
2023/05/31 07:43:59;;;;;;;4.97;1.93;;;19.70;76.70;;;;;;4388060;28;657805;-77
2023/05/31 07:46:46;;;;;;;6.95;2.00;;;19.80;73.30;;;;;;4343444;27;656956;-75
2023/05/31 07:49:33;;;;;;;7.73;2.50;;;20.20;77.60;;;;;;4381311;28;657506;-77
2023/05/31 07:52:22;;;;;;;5.40;1.80;;;20.30;67.20;;;;;;4354727;28;656510;-76
2023/05/31 07:55:12;;;;;;;3.83;2.13;;;20.60;71.70;;;;;;4409338;27;656986;-76
2023/05/31 07:57:59;;;;;;;4.40;2.20;;;20.90;73.50;;;;;;4378448;27;657641;-78
2023/05/31 08:00:46;;;;;;;7.73;2.10;;;21.20;75.30;;;;;;4358345;27;656934;-75
2023/05/31 08:03:33;;;;;;;5.30;1.90;;;21.40;72.90;;;;;;4398689;28;657527;-77
2023/05/31 08:06:20;;;;;;;7.27;2.33;;;21.50;71.60;;;;;;4362492;28;656757;-75
2023/05/31 08:09:09;;;;;;;12.33;2.17;;;21.60;66.90;;;;;;4371324;28;657523;-77
2023/05/31 08:11:56;;;;;;;10.83;1.93;;;21.80;65.70;;;;;;4353836;28;658404;-76
2023/05/31 08:14:43;;;;;;;6.20;2.00;;;22.10;62.70;;;;;;4362650;28;657816;-78
2023/05/31 08:17:31;;;;;;;8.03;2.10;;;22.40;63.00;;;;;;4347540;28;656492;-77
2023/05/31 08:20:18;;;;;;;6.95;2.22;;;22.60;63.00;;;;;;4368759;28;656433;-78
2023/05/31 08:23:05;;;;;;;7.47;2.13;;;22.50;60.00;;;;;;4349320;28;656623;-76
2023/05/31 08:25:55;;;;;;;4.80;2.10;;;22.50;59.90;;;;;;4387455;28;658040;-78
2023/05/31 08:28:43;;;;;;;10.40;2.20;;;22.50;65.20;;;;;;4367378;27;656879;-77
2023/05/31 08:31:31;;;;;;;3.63;1.70;;;22.60;59.30;;;;;;4369021;28;658911;-74
2023/05/31 08:34:19;;;;;;;6.87;2.00;;;22.50;56.20;;;;;;4382333;28;657122;-78
2023/05/31 08:37:06;;;;;;;4.00;1.83;;;22.50;55.90;;;;;;4364980;27;656634;-77
2023/05/31 08:39:53;;;;;;;6.93;2.10;;;22.20;57.30;;;;;;4384226;28;657037;-77
2023/05/31 08:42:46;;;;;;;467.97;157.63;;;22.40;68.50;;;;;;4366418;28;656803;-76
2023/05/31 08:45:34;;;;;;;80.47;20.50;;;22.70;54.20;;;;;;4353417;28;661440;-76
2023/05/31 08:48:24;;;;;;;41.73;11.20;;;23.10;54.40;;;;;;4361213;28;659085;-77
2023/05/31 08:51:12;;;;;;;4.80;2.00;;;23.50;54.00;;;;;;4364404;27;658629;-77
2023/05/31 08:53:59;;;;;;;25.97;8.20;;;23.70;52.40;;;;;;4373258;28;656424;-79
2023/05/31 08:56:47;;;;;;;49.97;20.37;;;23.50;52.60;;;;;;4366578;27;658547;-80
2023/05/31 08:59:37;;;;;;;11.67;4.03;;;23.80;55.00;;;;;;4378207;27;659266;-78
2023/05/31 09:02:24;;;;;;;7.80;1.70;;;23.80;52.80;;;;;;4355118;28;658215;-78
2023/05/31 09:05:12;;;;;;;6.37;2.17;;;23.60;49.00;;;;;;4362988;28;657018;-77
2023/05/31 09:07:59;;;;;;;5.60;1.90;;;23.60;53.20;;;;;;4383705;28;656757;-79
2023/05/31 09:10:46;;;;;;;4.40;1.93;;;23.80;51.60;;;;;;4362551;28;656969;-76
2023/05/31 09:13:33;;;;;;;9.33;1.70;;;23.80;49.60;;;;;;4387292;28;656319;-77
2023/05/31 09:16:23;;;;;;;3.47;1.57;;;23.80;49.90;;;;;;4377951;27;656398;-77
2023/05/31 09:19:10;;;;;;;7.77;1.90;;;24.00;52.70;;;;;;4378023;28;657055;-75
2023/05/31 09:21:57;;;;;;;6.30;1.83;;;23.50;46.30;;;;;;4384037;28;656779;-77
2023/05/31 09:24:50;;;;;;;3.38;1.80;;;24.10;48.50;;;;;;4378895;28;656608;-74
2023/05/31 09:27:38;;;;;;;4.32;1.98;;;24.30;49.60;;;;;;4359545;27;657423;-76
2023/05/31 09:30:25;;;;;;;4.25;1.80;;;24.70;47.20;;;;;;4359867;28;656582;-75
2023/05/31 09:33:15;;;;;;;3.42;1.85;;;24.70;44.90;;;;;;4379011;28;657389;-78
2023/05/31 09:36:02;;;;;;;6.95;2.08;;;24.70;51.50;;;;;;4369146;27;658392;-75
2023/05/31 09:38:50;;;;;;;5.68;2.08;;;24.80;48.60;;;;;;4392481;28;656831;-76
2023/05/31 09:41:38;;;;;;;6.10;1.92;;;24.60;46.50;;;;;;4383550;27;658085;-75
2023/05/31 09:44:27;;;;;;;8.70;1.77;;;24.80;48.10;;;;;;4388283;27;657670;-75
2023/05/31 09:47:15;;;;;;;12.63;1.67;;;24.90;46.10;;;;;;4383251;27;656745;-75
2023/05/31 09:50:04;;;;;;;4.43;1.98;;;24.90;45.70;;;;;;4399119;27;658059;-81
2023/05/31 09:52:56;;;;;;;8.25;2.00;;;25.00;47.00;;;;;;4377881;28;657017;-79
2023/05/31 09:55:43;;;;;;;8.48;1.83;;;24.70;44.80;;;;;;4356947;28;656408;-78
2023/05/31 09:58:31;;;;;;;9.32;1.70;;;24.80;44.30;;;;;;4369383;27;656819;-77
2023/05/31 10:01:19;;;;;;;7.68;2.13;;;25.10;47.60;;;;;;4385059;28;657152;-79
2023/05/31 10:04:06;;;;;;;3.92;1.73;;;25.00;44.80;;;;;;4357721;28;656508;-81
2023/05/31 10:06:55;;;;;;;8.25;1.90;;;25.40;46.40;;;;;;4396377;27;657299;-83
2023/05/31 10:09:42;;;;;;;3.88;1.77;;;25.70;48.00;;;;;;4363858;27;657491;-78
2023/05/31 10:12:29;;;;;;;5.55;1.85;;;25.40;45.00;;;;;;4389518;28;656978;-78
2023/05/31 10:15:17;;;;;;;7.07;1.75;;;25.30;45.10;;;;;;4356634;28;656719;-78
2023/05/31 10:18:08;;;;;;;3.22;1.73;;;25.30;47.20;;;;;;4380041;28;656803;-78
2023/05/31 10:20:59;;;;;;;8.52;1.98;;;25.30;45.20;;;;;;4374574;27;657170;-76
2023/05/31 10:23:53;;;;;;;5.68;2.10;;;25.30;49.50;;;;;;4388785;27;656662;-81
2023/05/31 10:26:45;;;;;;;5.10;1.70;;;25.30;45.50;;;;;;4343716;27;657045;-75
2023/05/31 10:29:34;;;;;;;6.55;2.20;;;25.30;46.40;;;;;;4358227;28;657175;-81
2023/05/31 10:32:24;;;;;;;4.53;1.98;;;25.20;46.90;;;;;;4370650;28;656276;-78
2023/05/31 10:35:11;;;;;;;5.65;1.90;;;25.20;45.50;;;;;;4370160;28;656635;-82
2023/05/31 10:37:58;;;;;;;10.93;1.90;;;25.40;46.40;;;;;;4385495;28;657202;-82
2023/05/31 10:40:49;;;;;;;3.00;1.73;;;25.00;45.50;;;;;;4358959;28;657538;-81
2023/05/31 10:43:38;;;;;;;6.40;1.65;;;24.80;47.70;;;;;;4364013;28;656686;-78
2023/05/31 10:46:26;;;;;;;7.97;2.10;;;25.10;46.50;;;;;;4380448;27;657417;-79
2023/05/31 10:49:14;;;;;;;4.00;1.88;;;25.10;43.10;;;;;;4397853;27;656478;-80
2023/05/31 10:52:05;;;;;;;4.90;2.05;;;24.70;46.00;;;;;;4381185;27;657137;-81
2023/05/31 10:54:52;;;;;;;6.90;1.85;;;25.30;48.30;;;;;;4362493;28;657640;-79
2023/05/31 10:57:41;;;;;;;4.68;2.08;;;25.70;50.00;;;;;;4383398;28;657170;-79
2023/05/31 11:00:28;;;;;;;8.43;1.92;;;25.80;45.70;;;;;;4366428;27;656759;-81
2023/05/31 11:03:16;;;;;;;4.93;2.40;;;25.60;47.00;;;;;;4365733;28;656418;-80
2023/05/31 11:06:04;;;;;;;7.30;2.05;;;25.80;47.10;;;;;;4381372;28;656800;-79
2023/05/31 11:08:58;;;;;;;6.15;1.98;;;25.70;44.30;;;;;;4380095;27;656850;-82
2023/05/31 11:11:47;;;;;;;8.93;1.90;;;26.10;43.60;;;;;;4351947;27;656528;-81
2023/05/31 11:14:36;;;;;;;5.78;2.17;;;25.70;45.60;;;;;;4389060;27;657420;-79
2023/05/31 11:17:23;;;;;;;5.03;2.10;;;25.80;41.80;;;;;;4373801;28;656963;-82
2023/05/31 11:20:16;;;;;;;3.88;2.17;;;24.60;45.60;;;;;;4365384;27;656581;-78
2023/05/31 11:23:24;;;;;;;6.00;1.90;;;25.00;46.90;;;;;;4360721;28;656888;-82
2023/05/31 11:26:15;;;;;;;3.35;1.98;;;25.30;48.60;;;;;;4334923;28;658281;-78
2023/05/31 11:29:03;;;;;;;4.65;1.88;;;25.50;46.90;;;;;;4369138;28;656573;-76
2023/05/31 11:31:59;;;;;;;5.35;2.05;;;25.70;43.70;;;;;;4376581;28;657346;-78
2023/05/31 11:34:53;;;;;;;5.35;1.90;;;26.40;44.00;;;;;;4352015;27;657806;-78
2023/05/31 11:37:42;;;;;;;6.43;2.17;;;25.80;44.70;;;;;;4336741;28;656760;-78
2023/05/31 11:40:31;;;;;;;3.85;2.10;;;25.10;40.00;;;;;;4378908;28;656594;-79
2023/05/31 11:43:18;;;;;;;8.35;2.03;;;25.70;45.70;;;;;;4356886;28;656886;-82
2023/05/31 11:46:06;;;;;;;8.25;1.95;;;26.00;44.40;;;;;;4365819;28;656252;-78
2023/05/31 11:48:54;;;;;;;4.53;1.90;;;26.00;43.40;;;;;;4380194;28;656995;-76
2023/05/31 11:51:43;;;;;;;7.05;2.10;;;26.10;43.20;;;;;;4363948;28;656728;-77
2023/05/31 11:54:32;;;;;;;5.82;1.73;;;26.30;42.50;;;;;;4387413;28;656216;-76
2023/05/31 11:57:20;;;;;;;7.57;1.77;;;26.20;43.20;;;;;;4400841;27;656446;-79
2023/05/31 12:00:11;;;;;;;2.97;1.90;;;26.40;44.10;;;;;;4355241;28;657238;-78
2023/05/31 12:03:02;;;;;;;5.72;2.00;;;26.80;40.30;;;;;;4370953;28;656738;-79
2023/05/31 12:05:58;;;;;;;5.57;1.98;;;26.80;41.50;;;;;;4367713;28;657210;-78
2023/05/31 12:08:46;;;;;;;8.13;2.20;;;26.70;41.70;;;;;;4343029;28;657032;-77
2023/05/31 12:11:33;;;;;;;4.40;1.98;;;26.60;42.40;;;;;;4387505;27;656813;-82
2023/05/31 12:14:20;;;;;;;3.70;1.80;;;26.50;43.40;;;;;;4363769;28;656459;-75
2023/05/31 12:17:07;;;;;;;8.10;1.80;;;27.20;42.60;;;;;;4399839;28;658013;-76
2023/05/31 12:19:55;;;;;;;5.45;1.80;;;27.50;42.60;;;;;;4381920;27;656677;-75
2023/05/31 12:22:44;;;;;;;4.78;1.80;;;27.40;40.30;;;;;;4384428;28;657190;-76
2023/05/31 12:25:31;;;;;;;6.72;2.15;;;27.30;41.40;;;;;;4364525;27;656896;-77
2023/05/31 12:28:19;;;;;;;6.35;1.88;;;27.20;41.20;;;;;;4392913;28;656915;-80
2023/05/31 12:31:08;;;;;;;6.68;1.83;;;27.10;40.40;;;;;;4360760;28;656858;-78
2023/05/31 12:34:00;;;;;;;5.95;1.80;;;27.50;40.80;;;;;;4367544;28;657330;-77
2023/05/31 12:36:48;;;;;;;5.25;1.75;;;27.40;40.60;;;;;;4364871;28;657354;-79
2023/05/31 12:39:37;;;;;;;3.85;2.10;;;27.40;40.20;;;;;;4383768;28;656794;-75
2023/05/31 12:42:26;;;;;;;3.65;1.63;;;27.00;40.40;;;;;;4392315;28;657314;-76
2023/05/31 12:45:13;;;;;;;5.25;1.60;;;27.00;40.10;;;;;;4358510;28;657109;-75
2023/05/31 12:48:00;;;;;;;6.95;2.05;;;27.30;41.20;;;;;;4361270;28;656521;-75
2023/05/31 12:50:48;;;;;;;3.58;1.83;;;26.20;40.70;;;;;;4386949;28;656898;-76
2023/05/31 12:53:39;;;;;;;7.00;2.10;;;26.50;43.30;;;;;;4375972;28;657067;-75
2023/05/31 12:56:28;;;;;;;4.93;1.80;;;26.30;42.60;;;;;;4372652;27;656720;-78
2023/05/31 12:59:15;;;;;;;5.88;1.90;;;26.60;40.30;;;;;;4378829;28;656813;-74
2023/05/31 13:02:03;;;;;;;5.45;1.73;;;27.00;43.70;;;;;;4385645;28;657025;-76
2023/05/31 13:04:50;;;;;;;6.68;1.98;;;27.10;43.20;;;;;;4366246;28;656925;-77
2023/05/31 13:07:38;;;;;;;3.30;1.75;;;27.00;40.20;;;;;;4399157;28;657664;-77
2023/05/31 13:10:25;;;;;;;5.53;2.20;;;27.30;39.80;;;;;;4368644;28;657241;-74
2023/05/31 13:13:15;;;;;;;3.70;2.03;;;26.60;41.80;;;;;;4391583;27;657584;-77
2023/05/31 13:16:04;;;;;;;3.17;1.75;;;26.20;40.20;;;;;;4373043;27;658019;-77
2023/05/31 13:18:51;;;;;;;3.60;1.90;;;26.60;38.70;;;;;;4365122;28;656921;-74
2023/05/31 13:21:39;;;;;;;5.95;1.75;;;27.20;41.70;;;;;;4387800;27;656386;-79
2023/05/31 13:24:26;;;;;;;6.30;2.10;;;27.90;40.20;;;;;;4360071;28;656557;-74
2023/05/31 13:27:13;;;;;;;7.20;2.20;;;28.30;41.30;;;;;;4358552;28;657839;-75
2023/05/31 13:30:03;;;;;;;5.20;2.20;;;28.10;40.40;;;;;;4336639;28;656691;-73
2023/05/31 13:32:50;;;;;;;5.47;1.98;;;27.60;39.90;;;;;;4368438;28;658306;-71
2023/05/31 13:35:39;;;;;;;3.85;1.70;;;28.00;42.60;;;;;;4357338;28;657269;-77
2023/05/31 13:38:27;;;;;;;5.10;1.98;;;28.50;40.60;;;;;;4337277;28;657160;-72
2023/05/31 13:41:14;;;;;;;5.57;2.00;;;28.40;38.10;;;;;;4366500;28;656737;-72
2023/05/31 13:44:01;;;;;;;5.35;1.95;;;28.10;41.00;;;;;;4345822;28;656895;-73
2023/05/31 13:46:50;;;;;;;5.68;2.20;;;28.50;39.80;;;;;;4365800;28;657312;-74
2023/05/31 13:49:37;;;;;;;4.57;2.08;;;28.80;37.40;;;;;;4343506;28;657738;-73
2023/05/31 13:52:24;;;;;;;4.20;2.03;;;28.60;37.10;;;;;;4358775;28;658180;-77
2023/05/31 13:55:12;;;;;;;9.05;1.88;;;28.40;39.10;;;;;;4357079;28;656498;-76
2023/05/31 13:57:59;;;;;;;4.63;2.00;;;28.60;36.30;;;;;;4380100;28;656789;-77
2023/05/31 14:00:46;;;;;;;4.32;2.15;;;28.00;39.10;;;;;;4335979;28;656753;-75
2023/05/31 14:03:34;;;;;;;5.68;2.15;;;27.60;37.30;;;;;;4368797;28;657230;-75
2023/05/31 14:06:22;;;;;;;7.20;2.08;;;27.50;40.80;;;;;;4334940;28;657909;-75
2023/05/31 14:09:09;;;;;;;4.80;1.67;;;27.80;35.40;;;;;;4365001;28;656790;-75
2023/05/31 14:11:56;;;;;;;3.95;1.80;;;28.10;37.70;;;;;;4335255;28;656743;-74
2023/05/31 14:14:44;;;;;;;5.55;2.20;;;28.30;37.60;;;;;;4350722;28;657350;-74
2023/05/31 14:17:31;;;;;;;6.15;1.75;;;28.50;36.70;;;;;;4336186;28;657808;-75
2023/05/31 14:20:20;;;;;;;6.22;2.10;;;28.30;35.20;;;;;;4364916;28;657735;-76
2023/05/31 14:23:07;;;;;;;8.13;2.15;;;27.60;36.60;;;;;;4343409;28;657226;-75
2023/05/31 14:25:54;;;;;;;6.45;1.90;;;27.20;37.40;;;;;;4377590;28;657861;-77